< Typhoon 199314 1993 Season Typhoon 199316 >
Typhoon 199315 (ABE)
General InformationTrack Information on Google MapsDetailed Wind InformationList of All Images || Disaster Info.ResourceGoogle EarthGE AnimationAtom FeedGeoJSON
Detalied Best Track (Time Zone = UTC)
Year Month Day Hour Lat. Long. Pressure (hPa) Wind (kt) Class Image Chart
1993 9 9 00 19.0 124.0 1008 0 2 Image Chart
1993 9 9 06 19.2 124.1 1008 0 2 Image Chart
1993 9 9 12 19.3 124.2 1006 0 2 Image Chart
1993 9 9 18 19.4 124.2 1006 0 2 Image Chart
1993 9 10 00 19.6 124.1 1000 35 3 Image Chart
1993 9 10 06 19.8 124.0 996 35 3 Image Chart
1993 9 10 12 19.9 123.8 990 45 3 Image Chart
1993 9 10 18 20.1 123.6 985 50 4 Image Chart
1993 9 11 00 20.4 123.2 980 55 4 Image Chart
1993 9 11 06 20.6 122.6 980 55 4 Image Chart
1993 9 11 12 20.7 122.0 980 55 4 Image Chart
1993 9 11 18 20.8 121.2 980 55 4 Image Chart
1993 9 12 00 21.0 120.4 975 60 4 Image Chart
1993 9 12 06 21.1 119.7 970 65 5 Image Chart
1993 9 12 12 21.3 119.2 960 75 5 Image Chart
1993 9 12 18 21.5 118.8 955 80 5 Image Chart
1993 9 13 00 21.9 118.3 950 80 5 Image Chart
1993 9 13 06 22.1 117.9 945 85 5 Image Chart
1993 9 13 12 22.3 117.6 945 85 5 Image Chart
1993 9 13 18 22.6 117.1 955 80 5 Image Chart
1993 9 14 00 23.1 116.4 970 60 4 Image Chart
1993 9 14 06 23.6 115.2 990 45 3 Image Chart
1993 9 14 12 24.0 114.0 1000 0 2 Image Chart
1993 9 14 18 24.2 113.5 1004 0 2 Image Chart
1993 9 15 00 24.5 112.5 1008 0 2 Image Chart
1993 9 15 06 25.0 111.0 1006 0 2 Image Chart
Japan Meteorological Agency Best Track Data | Correction Date : 1994-01-10
< Typhoon 199314 1993 Season Typhoon 199316 >

Help